sensor_id;sensor_type;location;lat;lon;timestamp;P1;durP1;ratioP1;P2;durP2;ratioP2
38683;SDS011;24910;53.248;-6.134;2023-03-20T00:04:59;0.82;;;0.75;;
38683;SDS011;24910;53.248;-6.134;2023-03-20T00:07:28;0.98;;;0.68;;
38683;SDS011;24910;53.248;-6.134;2023-03-20T00:09:59;1.48;;;0.77;;
38683;SDS011;24910;53.248;-6.134;2023-03-20T00:12:29;0.55;;;0.55;;
38683;SDS011;24910;53.248;-6.134;2023-03-20T00:14:58;0.73;;;0.50;;
38683;SDS011;24910;53.248;-6.134;2023-03-20T00:17:30;0.50;;;0.50;;
38683;SDS011;24910;53.248;-6.134;2023-03-20T00:19:59;0.98;;;0.70;;
38683;SDS011;24910;53.248;-6.134;2023-03-20T00:22:28;1.70;;;1.10;;
38683;SDS011;24910;53.248;-6.134;2023-03-20T00:25:00;1.00;;;0.80;;
38683;SDS011;24910;53.248;-6.134;2023-03-20T00:27:29;1.40;;;0.80;;
38683;SDS011;24910;53.248;-6.134;2023-03-20T00:29:58;0.93;;;0.70;;
38683;SDS011;24910;53.248;-6.134;2023-03-20T00:32:27;1.30;;;0.80;;
38683;SDS011;24910;53.248;-6.134;2023-03-20T00:34:56;0.55;;;0.50;;
38683;SDS011;24910;53.248;-6.134;2023-03-20T00:37:25;1.65;;;0.68;;
38683;SDS011;24910;53.248;-6.134;2023-03-20T00:39:56;0.65;;;0.65;;
38683;SDS011;24910;53.248;-6.134;2023-03-20T00:42:27;1.48;;;0.70;;
38683;SDS011;24910;53.248;-6.134;2023-03-20T00:44:56;1.65;;;0.90;;
38683;SDS011;24910;53.248;-6.134;2023-03-20T00:47:27;0.85;;;0.70;;
38683;SDS011;24910;53.248;-6.134;2023-03-20T00:49:56;0.93;;;0.70;;
38683;SDS011;24910;53.248;-6.134;2023-03-20T00:52:29;0.68;;;0.63;;
38683;SDS011;24910;53.248;-6.134;2023-03-20T00:54:58;1.17;;;0.80;;
38683;SDS011;24910;53.248;-6.134;2023-03-20T00:57:29;0.88;;;0.70;;
38683;SDS011;24910;53.248;-6.134;2023-03-20T01:00:05;1.05;;;0.95;;
38683;SDS011;24910;53.248;-6.134;2023-03-20T01:02:36;1.52;;;0.90;;
38683;SDS011;24910;53.248;-6.134;2023-03-20T01:05:05;1.08;;;0.80;;
38683;SDS011;24910;53.248;-6.134;2023-03-20T01:07:35;0.93;;;0.80;;
38683;SDS011;24910;53.248;-6.134;2023-03-20T01:10:04;0.95;;;0.90;;
38683;SDS011;24910;53.248;-6.134;2023-03-20T01:12:36;0.85;;;0.60;;
38683;SDS011;24910;53.248;-6.134;2023-03-20T01:15:11;0.73;;;0.70;;
38683;SDS011;24910;53.248;-6.134;2023-03-20T01:17:45;0.63;;;0.63;;
38683;SDS011;24910;53.248;-6.134;2023-03-20T01:20:16;1.02;;;0.60;;
38683;SDS011;24910;53.248;-6.134;2023-03-20T01:22:46;2.05;;;0.90;;
38683;SDS011;24910;53.248;-6.134;2023-03-20T01:25:15;0.85;;;0.68;;
38683;SDS011;24910;53.248;-6.134;2023-03-20T01:27:48;3.78;;;0.70;;
38683;SDS011;24910;53.248;-6.134;2023-03-20T01:30:20;1.05;;;0.85;;
38683;SDS011;24910;53.248;-6.134;2023-03-20T01:32:50;1.88;;;0.90;;
38683;SDS011;24910;53.248;-6.134;2023-03-20T01:35:20;1.60;;;1.10;;
38683;SDS011;24910;53.248;-6.134;2023-03-20T01:37:51;1.95;;;0.80;;
38683;SDS011;24910;53.248;-6.134;2023-03-20T01:40:32;2.20;;;1.42;;
38683;SDS011;24910;53.248;-6.134;2023-03-20T01:43:10;11.70;;;5.38;;
38683;SDS011;24910;53.248;-6.134;2023-03-20T01:45:48;2.63;;;1.30;;
38683;SDS011;24910;53.248;-6.134;2023-03-20T01:48:24;2.10;;;1.20;;
38683;SDS011;24910;53.248;-6.134;2023-03-20T01:51:04;0.80;;;0.80;;
38683;SDS011;24910;53.248;-6.134;2023-03-20T01:53:33;1.20;;;0.80;;
38683;SDS011;24910;53.248;-6.134;2023-03-20T01:56:02;1.02;;;0.80;;
38683;SDS011;24910;53.248;-6.134;2023-03-20T01:58:41;1.48;;;0.80;;
38683;SDS011;24910;53.248;-6.134;2023-03-20T02:01:17;1.98;;;1.75;;
38683;SDS011;24910;53.248;-6.134;2023-03-20T02:03:47;1.50;;;1.40;;
38683;SDS011;24910;53.248;-6.134;2023-03-20T02:06:21;2.92;;;1.10;;
38683;SDS011;24910;53.248;-6.134;2023-03-20T02:09:01;2.28;;;1.40;;
38683;SDS011;24910;53.248;-6.134;2023-03-20T02:11:37;1.80;;;1.10;;
38683;SDS011;24910;53.248;-6.134;2023-03-20T02:14:10;3.83;;;1.50;;
38683;SDS011;24910;53.248;-6.134;2023-03-20T02:16:49;4.20;;;1.40;;
38683;SDS011;24910;53.248;-6.134;2023-03-20T02:19:34;5.22;;;1.65;;
38683;SDS011;24910;53.248;-6.134;2023-03-20T02:22:20;4.43;;;1.75;;
38683;SDS011;24910;53.248;-6.134;2023-03-20T02:25:04;4.45;;;1.80;;
38683;SDS011;24910;53.248;-6.134;2023-03-20T02:28:04;3.88;;;2.08;;
38683;SDS011;24910;53.248;-6.134;2023-03-20T02:31:06;5.40;;;1.75;;
38683;SDS011;24910;53.248;-6.134;2023-03-20T02:33:50;2.35;;;1.90;;
38683;SDS011;24910;53.248;-6.134;2023-03-20T02:39:53;6.78;;;1.70;;
38683;SDS011;24910;53.248;-6.134;2023-03-20T02:42:32;5.13;;;1.83;;
38683;SDS011;24910;53.248;-6.134;2023-03-20T02:45:11;1.85;;;1.40;;
38683;SDS011;24910;53.248;-6.134;2023-03-20T02:47:47;4.53;;;1.77;;
38683;SDS011;24910;53.248;-6.134;2023-03-20T02:50:24;4.38;;;1.42;;
38683;SDS011;24910;53.248;-6.134;2023-03-20T02:53:05;2.35;;;1.38;;
38683;SDS011;24910;53.248;-6.134;2023-03-20T02:55:44;5.13;;;1.90;;
38683;SDS011;24910;53.248;-6.134;2023-03-20T02:58:17;4.88;;;1.75;;
38683;SDS011;24910;53.248;-6.134;2023-03-20T03:00:52;5.20;;;1.80;;
38683;SDS011;24910;53.248;-6.134;2023-03-20T03:03:30;3.25;;;1.67;;
38683;SDS011;24910;53.248;-6.134;2023-03-20T03:06:05;7.50;;;1.90;;
38683;SDS011;24910;53.248;-6.134;2023-03-20T03:08:42;6.97;;;2.15;;
38683;SDS011;24910;53.248;-6.134;2023-03-20T03:11:15;5.72;;;2.03;;
38683;SDS011;24910;53.248;-6.134;2023-03-20T03:13:46;6.25;;;1.70;;
38683;SDS011;24910;53.248;-6.134;2023-03-20T03:16:18;4.22;;;1.33;;
38683;SDS011;24910;53.248;-6.134;2023-03-20T03:18:55;5.03;;;1.42;;
38683;SDS011;24910;53.248;-6.134;2023-03-20T03:21:31;3.17;;;1.45;;
38683;SDS011;24910;53.248;-6.134;2023-03-20T03:24:13;7.15;;;1.30;;
38683;SDS011;24910;53.248;-6.134;2023-03-20T03:27:10;3.72;;;1.63;;
38683;SDS011;24910;53.248;-6.134;2023-03-20T03:29:46;4.47;;;1.30;;
38683;SDS011;24910;53.248;-6.134;2023-03-20T03:32:22;3.88;;;1.33;;
38683;SDS011;24910;53.248;-6.134;2023-03-20T03:34:54;7.65;;;2.17;;
38683;SDS011;24910;53.248;-6.134;2023-03-20T03:37:27;8.00;;;3.20;;
38683;SDS011;24910;53.248;-6.134;2023-03-20T03:40:09;9.30;;;3.78;;
38683;SDS011;24910;53.248;-6.134;2023-03-20T03:42:48;15.38;;;4.30;;
38683;SDS011;24910;53.248;-6.134;2023-03-20T03:45:22;9.90;;;3.63;;
38683;SDS011;24910;53.248;-6.134;2023-03-20T03:47:58;11.52;;;3.85;;
38683;SDS011;24910;53.248;-6.134;2023-03-20T03:50:32;11.60;;;3.90;;
38683;SDS011;24910;53.248;-6.134;2023-03-20T03:53:05;16.23;;;3.80;;
38683;SDS011;24910;53.248;-6.134;2023-03-20T03:55:40;11.13;;;3.95;;
38683;SDS011;24910;53.248;-6.134;2023-03-20T03:58:13;13.57;;;4.10;;
38683;SDS011;24910;53.248;-6.134;2023-03-20T04:00:47;10.02;;;3.85;;
38683;SDS011;24910;53.248;-6.134;2023-03-20T04:03:19;9.65;;;3.10;;
38683;SDS011;24910;53.248;-6.134;2023-03-20T04:05:51;9.20;;;2.25;;
38683;SDS011;24910;53.248;-6.134;2023-03-20T04:08:22;4.20;;;1.70;;
38683;SDS011;24910;53.248;-6.134;2023-03-20T04:10:53;6.30;;;1.90;;
38683;SDS011;24910;53.248;-6.134;2023-03-20T04:13:22;5.93;;;2.10;;
38683;SDS011;24910;53.248;-6.134;2023-03-20T04:15:51;5.85;;;1.85;;
38683;SDS011;24910;53.248;-6.134;2023-03-20T04:18:21;7.93;;;1.70;;
38683;SDS011;24910;53.248;-6.134;2023-03-20T04:20:50;6.10;;;1.95;;
38683;SDS011;24910;53.248;-6.134;2023-03-20T04:23:19;3.45;;;1.90;;
38683;SDS011;24910;53.248;-6.134;2023-03-20T04:25:48;3.30;;;1.60;;
38683;SDS011;24910;53.248;-6.134;2023-03-20T04:28:19;6.30;;;1.95;;
38683;SDS011;24910;53.248;-6.134;2023-03-20T04:30:55;4.15;;;1.80;;
38683;SDS011;24910;53.248;-6.134;2023-03-20T04:33:49;4.65;;;1.90;;
38683;SDS011;24910;53.248;-6.134;2023-03-20T04:36:39;4.25;;;1.70;;
38683;SDS011;24910;53.248;-6.134;2023-03-20T04:39:11;2.25;;;1.50;;
38683;SDS011;24910;53.248;-6.134;2023-03-20T04:41:40;5.05;;;1.77;;
38683;SDS011;24910;53.248;-6.134;2023-03-20T04:44:11;5.10;;;2.00;;
38683;SDS011;24910;53.248;-6.134;2023-03-20T04:46:43;4.38;;;1.85;;
38683;SDS011;24910;53.248;-6.134;2023-03-20T04:49:15;4.38;;;1.70;;
38683;SDS011;24910;53.248;-6.134;2023-03-20T04:51:44;5.03;;;1.60;;
38683;SDS011;24910;53.248;-6.134;2023-03-20T04:54:16;2.22;;;1.50;;
38683;SDS011;24910;53.248;-6.134;2023-03-20T04:56:46;4.50;;;1.67;;
38683;SDS011;24910;53.248;-6.134;2023-03-20T04:59:19;2.95;;;1.42;;
38683;SDS011;24910;53.248;-6.134;2023-03-20T05:01:48;1.77;;;1.20;;
38683;SDS011;24910;53.248;-6.134;2023-03-20T05:04:17;4.50;;;1.77;;
38683;SDS011;24910;53.248;-6.134;2023-03-20T05:06:46;3.15;;;1.60;;
38683;SDS011;24910;53.248;-6.134;2023-03-20T05:09:18;4.50;;;1.73;;
38683;SDS011;24910;53.248;-6.134;2023-03-20T05:11:49;7.47;;;1.63;;
38683;SDS011;24910;53.248;-6.134;2023-03-20T05:14:40;4.10;;;1.60;;
38683;SDS011;24910;53.248;-6.134;2023-03-20T05:17:27;7.38;;;2.53;;
38683;SDS011;24910;53.248;-6.134;2023-03-20T05:20:23;10.57;;;2.40;;
38683;SDS011;24910;53.248;-6.134;2023-03-20T05:23:05;8.60;;;2.63;;
38683;SDS011;24910;53.248;-6.134;2023-03-20T05:25:46;7.28;;;2.47;;
38683;SDS011;24910;53.248;-6.134;2023-03-20T05:28:34;8.93;;;3.00;;
38683;SDS011;24910;53.248;-6.134;2023-03-20T05:31:14;8.88;;;2.90;;
38683;SDS011;24910;53.248;-6.134;2023-03-20T05:34:12;8.45;;;2.30;;
38683;SDS011;24910;53.248;-6.134;2023-03-20T05:36:48;7.68;;;2.20;;
38683;SDS011;24910;53.248;-6.134;2023-03-20T05:39:36;8.50;;;2.50;;
38683;SDS011;24910;53.248;-6.134;2023-03-20T05:42:37;4.88;;;2.30;;
38683;SDS011;24910;53.248;-6.134;2023-03-20T05:45:21;4.53;;;1.90;;
38683;SDS011;24910;53.248;-6.134;2023-03-20T05:48:30;5.60;;;1.90;;
38683;SDS011;24910;53.248;-6.134;2023-03-20T05:51:08;7.53;;;2.10;;
38683;SDS011;24910;53.248;-6.134;2023-03-20T05:53:51;10.02;;;2.08;;
38683;SDS011;24910;53.248;-6.134;2023-03-20T05:56:23;4.78;;;2.00;;
38683;SDS011;24910;53.248;-6.134;2023-03-20T05:59:18;5.25;;;1.80;;
38683;SDS011;24910;53.248;-6.134;2023-03-20T06:02:07;2.88;;;1.52;;
38683;SDS011;24910;53.248;-6.134;2023-03-20T06:04:41;5.05;;;1.60;;
38683;SDS011;24910;53.248;-6.134;2023-03-20T06:07:18;5.50;;;2.20;;
38683;SDS011;24910;53.248;-6.134;2023-03-20T06:09:56;4.30;;;1.70;;
38683;SDS011;24910;53.248;-6.134;2023-03-20T06:12:28;3.67;;;1.85;;
38683;SDS011;24910;53.248;-6.134;2023-03-20T06:14:57;5.68;;;1.80;;
38683;SDS011;24910;53.248;-6.134;2023-03-20T06:20:03;5.78;;;2.05;;
38683;SDS011;24910;53.248;-6.134;2023-03-20T06:25:01;2.05;;;1.30;;
38683;SDS011;24910;53.248;-6.134;2023-03-20T06:27:35;1.05;;;0.90;;
38683;SDS011;24910;53.248;-6.134;2023-03-20T06:30:04;2.55;;;1.27;;
38683;SDS011;24910;53.248;-6.134;2023-03-20T06:32:35;4.30;;;1.70;;
38683;SDS011;24910;53.248;-6.134;2023-03-20T06:35:10;2.65;;;1.40;;
38683;SDS011;24910;53.248;-6.134;2023-03-20T06:37:44;1.77;;;1.20;;
38683;SDS011;24910;53.248;-6.134;2023-03-20T06:40:19;6.32;;;1.70;;
38683;SDS011;24910;53.248;-6.134;2023-03-20T06:42:49;6.47;;;1.92;;
38683;SDS011;24910;53.248;-6.134;2023-03-20T06:45:18;6.82;;;1.92;;
38683;SDS011;24910;53.248;-6.134;2023-03-20T06:47:54;4.63;;;1.98;;
38683;SDS011;24910;53.248;-6.134;2023-03-20T06:50:27;4.80;;;1.80;;
38683;SDS011;24910;53.248;-6.134;2023-03-20T06:52:58;7.38;;;1.70;;
38683;SDS011;24910;53.248;-6.134;2023-03-20T06:55:29;5.88;;;1.95;;
38683;SDS011;24910;53.248;-6.134;2023-03-20T06:57:59;3.85;;;1.50;;
38683;SDS011;24910;53.248;-6.134;2023-03-20T07:00:29;5.10;;;1.87;;
38683;SDS011;24910;53.248;-6.134;2023-03-20T07:03:02;3.38;;;1.90;;
38683;SDS011;24910;53.248;-6.134;2023-03-20T07:08:07;2.38;;;1.70;;
38683;SDS011;24910;53.248;-6.134;2023-03-20T07:10:36;3.20;;;1.60;;
38683;SDS011;24910;53.248;-6.134;2023-03-20T07:13:05;5.65;;;1.70;;
38683;SDS011;24910;53.248;-6.134;2023-03-20T07:15:37;5.32;;;1.63;;
38683;SDS011;24910;53.248;-6.134;2023-03-20T07:18:24;3.45;;;1.30;;
38683;SDS011;24910;53.248;-6.134;2023-03-20T07:20:56;3.60;;;1.60;;
38683;SDS011;24910;53.248;-6.134;2023-03-20T07:23:28;6.15;;;1.75;;
38683;SDS011;24910;53.248;-6.134;2023-03-20T07:25:58;7.80;;;2.00;;
38683;SDS011;24910;53.248;-6.134;2023-03-20T07:28:27;6.30;;;1.98;;
38683;SDS011;24910;53.248;-6.134;2023-03-20T07:31:09;5.82;;;2.17;;
38683;SDS011;24910;53.248;-6.134;2023-03-20T07:33:50;7.82;;;2.30;;
38683;SDS011;24910;53.248;-6.134;2023-03-20T07:36:21;7.82;;;2.58;;
38683;SDS011;24910;53.248;-6.134;2023-03-20T07:38:50;5.50;;;2.35;;
38683;SDS011;24910;53.248;-6.134;2023-03-20T07:41:19;3.42;;;1.85;;
38683;SDS011;24910;53.248;-6.134;2023-03-20T07:43:59;8.05;;;2.40;;
38683;SDS011;24910;53.248;-6.134;2023-03-20T07:46:50;5.20;;;1.90;;
38683;SDS011;24910;53.248;-6.134;2023-03-20T07:49:22;7.50;;;2.17;;
38683;SDS011;24910;53.248;-6.134;2023-03-20T07:51:53;9.05;;;2.28;;
38683;SDS011;24910;53.248;-6.134;2023-03-20T07:54:23;6.10;;;2.25;;
38683;SDS011;24910;53.248;-6.134;2023-03-20T07:56:52;6.90;;;2.45;;
38683;SDS011;24910;53.248;-6.134;2023-03-20T07:59:21;6.13;;;2.00;;
38683;SDS011;24910;53.248;-6.134;2023-03-20T08:01:50;5.93;;;1.40;;
38683;SDS011;24910;53.248;-6.134;2023-03-20T08:04:19;2.65;;;1.40;;
38683;SDS011;24910;53.248;-6.134;2023-03-20T08:06:49;10.32;;;2.50;;
38683;SDS011;24910;53.248;-6.134;2023-03-20T08:09:20;5.85;;;2.20;;
38683;SDS011;24910;53.248;-6.134;2023-03-20T08:11:49;8.23;;;2.50;;
38683;SDS011;24910;53.248;-6.134;2023-03-20T08:14:18;6.93;;;2.33;;
38683;SDS011;24910;53.248;-6.134;2023-03-20T08:16:50;7.28;;;2.20;;
38683;SDS011;24910;53.248;-6.134;2023-03-20T08:19:39;7.78;;;2.50;;
38683;SDS011;24910;53.248;-6.134;2023-03-20T08:22:08;7.47;;;2.38;;
38683;SDS011;24910;53.248;-6.134;2023-03-20T08:24:39;6.00;;;2.33;;
38683;SDS011;24910;53.248;-6.134;2023-03-20T08:27:08;5.60;;;2.13;;
38683;SDS011;24910;53.248;-6.134;2023-03-20T08:29:37;7.30;;;2.00;;
38683;SDS011;24910;53.248;-6.134;2023-03-20T08:32:06;3.58;;;1.75;;
38683;SDS011;24910;53.248;-6.134;2023-03-20T08:34:35;2.33;;;1.77;;
38683;SDS011;24910;53.248;-6.134;2023-03-20T08:37:04;3.00;;;1.67;;
38683;SDS011;24910;53.248;-6.134;2023-03-20T08:39:34;3.65;;;1.38;;
38683;SDS011;24910;53.248;-6.134;2023-03-20T08:42:05;4.28;;;1.90;;
38683;SDS011;24910;53.248;-6.134;2023-03-20T08:44:34;3.10;;;1.90;;
38683;SDS011;24910;53.248;-6.134;2023-03-20T08:47:03;3.30;;;1.75;;
38683;SDS011;24910;53.248;-6.134;2023-03-20T08:49:33;3.67;;;1.95;;
38683;SDS011;24910;53.248;-6.134;2023-03-20T08:52:03;2.05;;;1.38;;
38683;SDS011;24910;53.248;-6.134;2023-03-20T08:54:33;3.50;;;1.75;;
38683;SDS011;24910;53.248;-6.134;2023-03-20T08:57:02;3.00;;;1.60;;
38683;SDS011;24910;53.248;-6.134;2023-03-20T08:59:32;3.97;;;1.77;;
38683;SDS011;24910;53.248;-6.134;2023-03-20T09:02:01;9.75;;;2.08;;
38683;SDS011;24910;53.248;-6.134;2023-03-20T09:04:31;5.35;;;2.20;;
38683;SDS011;24910;53.248;-6.134;2023-03-20T09:07:03;10.35;;;2.42;;
38683;SDS011;24910;53.248;-6.134;2023-03-20T09:09:32;10.00;;;2.63;;
38683;SDS011;24910;53.248;-6.134;2023-03-20T09:12:04;7.45;;;2.08;;
38683;SDS011;24910;53.248;-6.134;2023-03-20T09:14:36;4.13;;;1.60;;
38683;SDS011;24910;53.248;-6.134;2023-03-20T09:17:05;4.70;;;1.98;;
38683;SDS011;24910;53.248;-6.134;2023-03-20T09:19:34;3.55;;;1.65;;
38683;SDS011;24910;53.248;-6.134;2023-03-20T09:22:07;3.92;;;1.58;;
38683;SDS011;24910;53.248;-6.134;2023-03-20T09:24:37;4.20;;;1.67;;
38683;SDS011;24910;53.248;-6.134;2023-03-20T09:27:06;5.22;;;1.70;;
38683;SDS011;24910;53.248;-6.134;2023-03-20T09:29:41;5.07;;;1.50;;
38683;SDS011;24910;53.248;-6.134;2023-03-20T09:32:11;3.83;;;1.60;;
38683;SDS011;24910;53.248;-6.134;2023-03-20T09:34:41;2.17;;;1.50;;
38683;SDS011;24910;53.248;-6.134;2023-03-20T09:37:10;2.95;;;1.40;;
38683;SDS011;24910;53.248;-6.134;2023-03-20T09:39:39;4.95;;;1.60;;
38683;SDS011;24910;53.248;-6.134;2023-03-20T09:42:12;5.07;;;1.52;;
38683;SDS011;24910;53.248;-6.134;2023-03-20T09:44:54;2.75;;;1.40;;
38683;SDS011;24910;53.248;-6.134;2023-03-20T09:47:31;6.47;;;1.60;;
38683;SDS011;24910;53.248;-6.134;2023-03-20T09:50:10;4.55;;;1.70;;
38683;SDS011;24910;53.248;-6.134;2023-03-20T09:52:52;2.88;;;1.42;;
38683;SDS011;24910;53.248;-6.134;2023-03-20T09:55:29;1.95;;;1.27;;
38683;SDS011;24910;53.248;-6.134;2023-03-20T09:58:03;2.63;;;1.00;;
38683;SDS011;24910;53.248;-6.134;2023-03-20T10:00:39;4.40;;;1.20;;
38683;SDS011;24910;53.248;-6.134;2023-03-20T10:03:14;3.00;;;1.20;;
38683;SDS011;24910;53.248;-6.134;2023-03-20T10:05:48;4.05;;;1.30;;
38683;SDS011;24910;53.248;-6.134;2023-03-20T10:08:27;3.05;;;1.08;;
38683;SDS011;24910;53.248;-6.134;2023-03-20T10:11:05;2.78;;;1.40;;
38683;SDS011;24910;53.248;-6.134;2023-03-20T10:13:55;1.00;;;0.90;;
38683;SDS011;24910;53.248;-6.134;2023-03-20T10:16:39;2.53;;;1.05;;
38683;SDS011;24910;53.248;-6.134;2023-03-20T10:19:18;5.30;;;1.20;;
38683;SDS011;24910;53.248;-6.134;2023-03-20T10:21:54;2.08;;;0.90;;
38683;SDS011;24910;53.248;-6.134;2023-03-20T10:24:28;3.25;;;1.13;;
38683;SDS011;24910;53.248;-6.134;2023-03-20T10:27:03;3.78;;;0.90;;
38683;SDS011;24910;53.248;-6.134;2023-03-20T10:29:41;2.38;;;1.30;;
38683;SDS011;24910;53.248;-6.134;2023-03-20T10:32:21;2.45;;;1.10;;
38683;SDS011;24910;53.248;-6.134;2023-03-20T10:34:57;2.10;;;1.08;;
38683;SDS011;24910;53.248;-6.134;2023-03-20T10:37:38;3.30;;;1.10;;
38683;SDS011;24910;53.248;-6.134;2023-03-20T10:40:20;2.60;;;0.95;;
38683;SDS011;24910;53.248;-6.134;2023-03-20T10:42:54;2.28;;;1.33;;
38683;SDS011;24910;53.248;-6.134;2023-03-20T10:45:33;2.25;;;1.10;;
38683;SDS011;24910;53.248;-6.134;2023-03-20T10:48:08;2.42;;;0.90;;
38683;SDS011;24910;53.248;-6.134;2023-03-20T10:50:44;3.58;;;1.20;;
38683;SDS011;24910;53.248;-6.134;2023-03-20T10:53:20;2.10;;;0.90;;
38683;SDS011;24910;53.248;-6.134;2023-03-20T10:55:54;3.10;;;1.05;;
38683;SDS011;24910;53.248;-6.134;2023-03-20T10:58:27;3.05;;;1.10;;
38683;SDS011;24910;53.248;-6.134;2023-03-20T11:00:59;4.95;;;1.02;;
38683;SDS011;24910;53.248;-6.134;2023-03-20T11:06:03;3.38;;;0.90;;
38683;SDS011;24910;53.248;-6.134;2023-03-20T11:08:39;5.80;;;1.10;;
38683;SDS011;24910;53.248;-6.134;2023-03-20T11:11:10;4.85;;;1.42;;
38683;SDS011;24910;53.248;-6.134;2023-03-20T11:13:40;3.17;;;1.00;;
38683;SDS011;24910;53.248;-6.134;2023-03-20T11:16:16;4.05;;;0.95;;
38683;SDS011;24910;53.248;-6.134;2023-03-20T11:18:50;5.70;;;1.30;;
38683;SDS011;24910;53.248;-6.134;2023-03-20T11:21:22;3.50;;;1.00;;
38683;SDS011;24910;53.248;-6.134;2023-03-20T11:23:56;4.07;;;1.33;;
38683;SDS011;24910;53.248;-6.134;2023-03-20T11:26:31;2.97;;;1.20;;
38683;SDS011;24910;53.248;-6.134;2023-03-20T11:29:04;3.97;;;0.82;;
38683;SDS011;24910;53.248;-6.134;2023-03-20T11:31:35;3.97;;;1.02;;
38683;SDS011;24910;53.248;-6.134;2023-03-20T11:34:10;4.47;;;0.80;;
38683;SDS011;24910;53.248;-6.134;2023-03-20T11:36:53;5.00;;;1.25;;
38683;SDS011;24910;53.248;-6.134;2023-03-20T11:39:37;5.72;;;1.80;;
38683;SDS011;24910;53.248;-6.134;2023-03-20T11:42:20;9.68;;;1.60;;
38683;SDS011;24910;53.248;-6.134;2023-03-20T11:44:55;8.25;;;1.80;;
38683;SDS011;24910;53.248;-6.134;2023-03-20T11:47:26;17.70;;;2.78;;
38683;SDS011;24910;53.248;-6.134;2023-03-20T11:50:01;13.88;;;2.60;;
38683;SDS011;24910;53.248;-6.134;2023-03-20T11:52:32;11.32;;;2.83;;
38683;SDS011;24910;53.248;-6.134;2023-03-20T11:57:35;15.23;;;2.40;;
38683;SDS011;24910;53.248;-6.134;2023-03-20T12:00:11;17.83;;;2.65;;
38683;SDS011;24910;53.248;-6.134;2023-03-20T12:02:45;14.30;;;2.33;;
38683;SDS011;24910;53.248;-6.134;2023-03-20T12:05:26;10.55;;;2.63;;
38683;SDS011;24910;53.248;-6.134;2023-03-20T12:07:58;16.60;;;2.95;;
38683;SDS011;24910;53.248;-6.134;2023-03-20T12:10:32;24.08;;;4.45;;
38683;SDS011;24910;53.248;-6.134;2023-03-20T12:13:08;19.65;;;3.72;;
38683;SDS011;24910;53.248;-6.134;2023-03-20T12:15:43;14.95;;;2.88;;
38683;SDS011;24910;53.248;-6.134;2023-03-20T12:18:16;19.67;;;3.38;;
38683;SDS011;24910;53.248;-6.134;2023-03-20T12:20:57;19.48;;;3.53;;
38683;SDS011;24910;53.248;-6.134;2023-03-20T12:23:35;17.02;;;3.78;;
38683;SDS011;24910;53.248;-6.134;2023-03-20T12:26:10;23.90;;;3.63;;
38683;SDS011;24910;53.248;-6.134;2023-03-20T12:28:43;19.50;;;3.90;;
38683;SDS011;24910;53.248;-6.134;2023-03-20T12:31:21;17.77;;;4.50;;
38683;SDS011;24910;53.248;-6.134;2023-03-20T12:33:54;20.85;;;3.42;;
38683;SDS011;24910;53.248;-6.134;2023-03-20T12:36:30;20.92;;;3.42;;
38683;SDS011;24910;53.248;-6.134;2023-03-20T12:39:01;25.02;;;4.63;;
38683;SDS011;24910;53.248;-6.134;2023-03-20T12:41:35;15.00;;;2.80;;
38683;SDS011;24910;53.248;-6.134;2023-03-20T12:44:19;14.35;;;2.58;;
38683;SDS011;24910;53.248;-6.134;2023-03-20T12:47:00;10.95;;;2.80;;
38683;SDS011;24910;53.248;-6.134;2023-03-20T12:49:44;15.32;;;3.03;;
38683;SDS011;24910;53.248;-6.134;2023-03-20T12:52:25;15.48;;;2.58;;
38683;SDS011;24910;53.248;-6.134;2023-03-20T12:55:06;12.70;;;3.13;;
38683;SDS011;24910;53.248;-6.134;2023-03-20T12:57:46;19.30;;;4.07;;
38683;SDS011;24910;53.248;-6.134;2023-03-20T13:00:23;17.73;;;3.53;;
38683;SDS011;24910;53.248;-6.134;2023-03-20T13:03:08;15.30;;;2.97;;
38683;SDS011;24910;53.248;-6.134;2023-03-20T13:05:54;20.02;;;3.75;;
38683;SDS011;24910;53.248;-6.134;2023-03-20T13:08:43;18.35;;;3.63;;
38683;SDS011;24910;53.248;-6.134;2023-03-20T13:11:28;19.65;;;3.53;;
38683;SDS011;24910;53.248;-6.134;2023-03-20T13:14:04;21.33;;;3.30;;
38683;SDS011;24910;53.248;-6.134;2023-03-20T13:16:43;19.85;;;3.67;;
38683;SDS011;24910;53.248;-6.134;2023-03-20T13:19:21;19.40;;;3.65;;
38683;SDS011;24910;53.248;-6.134;2023-03-20T13:21:55;15.73;;;4.10;;
38683;SDS011;24910;53.248;-6.134;2023-03-20T13:24:33;17.50;;;3.30;;
38683;SDS011;24910;53.248;-6.134;2023-03-20T13:27:10;17.75;;;3.58;;
38683;SDS011;24910;53.248;-6.134;2023-03-20T13:29:47;23.60;;;4.20;;
38683;SDS011;24910;53.248;-6.134;2023-03-20T13:32:23;19.85;;;3.60;;
38683;SDS011;24910;53.248;-6.134;2023-03-20T13:35:19;16.42;;;3.47;;
38683;SDS011;24910;53.248;-6.134;2023-03-20T13:38:08;16.10;;;3.05;;
38683;SDS011;24910;53.248;-6.134;2023-03-20T13:40:43;23.33;;;3.47;;
38683;SDS011;24910;53.248;-6.134;2023-03-20T13:43:18;20.77;;;2.95;;
38683;SDS011;24910;53.248;-6.134;2023-03-20T13:45:54;13.15;;;3.25;;
38683;SDS011;24910;53.248;-6.134;2023-03-20T13:48:28;12.38;;;2.60;;
38683;SDS011;24910;53.248;-6.134;2023-03-20T13:51:04;13.93;;;3.40;;
38683;SDS011;24910;53.248;-6.134;2023-03-20T13:53:47;11.93;;;2.55;;
38683;SDS011;24910;53.248;-6.134;2023-03-20T13:56:30;14.02;;;2.67;;
38683;SDS011;24910;53.248;-6.134;2023-03-20T13:59:12;10.27;;;2.58;;
38683;SDS011;24910;53.248;-6.134;2023-03-20T14:01:56;12.60;;;3.35;;
38683;SDS011;24910;53.248;-6.134;2023-03-20T14:04:30;11.23;;;2.55;;
38683;SDS011;24910;53.248;-6.134;2023-03-20T14:07:00;20.02;;;2.90;;
38683;SDS011;24910;53.248;-6.134;2023-03-20T14:09:30;16.90;;;3.00;;
38683;SDS011;24910;53.248;-6.134;2023-03-20T14:17:08;20.27;;;3.45;;
38683;SDS011;24910;53.248;-6.134;2023-03-20T14:19:43;18.13;;;3.60;;
38683;SDS011;24910;53.248;-6.134;2023-03-20T14:22:14;10.32;;;2.67;;
38683;SDS011;24910;53.248;-6.134;2023-03-20T14:24:48;16.85;;;3.03;;
38683;SDS011;24910;53.248;-6.134;2023-03-20T14:27:25;19.77;;;4.18;;
38683;SDS011;24910;53.248;-6.134;2023-03-20T14:33:06;16.77;;;4.88;;
38683;SDS011;24910;53.248;-6.134;2023-03-20T14:35:51;20.90;;;8.73;;
38683;SDS011;24910;53.248;-6.134;2023-03-20T14:38:40;21.33;;;9.60;;
38683;SDS011;24910;53.248;-6.134;2023-03-20T14:41:22;14.90;;;8.23;;
38683;SDS011;24910;53.248;-6.134;2023-03-20T14:43:59;14.98;;;6.22;;
38683;SDS011;24910;53.248;-6.134;2023-03-20T14:46:39;21.05;;;7.50;;
38683;SDS011;24910;53.248;-6.134;2023-03-20T14:49:22;18.30;;;5.93;;
38683;SDS011;24910;53.248;-6.134;2023-03-20T14:52:03;13.88;;;3.83;;
38683;SDS011;24910;53.248;-6.134;2023-03-20T14:54:50;12.98;;;3.00;;
38683;SDS011;24910;53.248;-6.134;2023-03-20T14:57:25;15.48;;;3.95;;
38683;SDS011;24910;53.248;-6.134;2023-03-20T15:00:16;14.75;;;3.88;;
38683;SDS011;24910;53.248;-6.134;2023-03-20T15:02:47;11.25;;;3.05;;
38683;SDS011;24910;53.248;-6.134;2023-03-20T15:05:23;12.68;;;3.35;;
38683;SDS011;24910;53.248;-6.134;2023-03-20T15:07:55;17.90;;;4.47;;
38683;SDS011;24910;53.248;-6.134;2023-03-20T15:10:31;13.73;;;3.60;;
38683;SDS011;24910;53.248;-6.134;2023-03-20T15:13:04;11.15;;;3.30;;
38683;SDS011;24910;53.248;-6.134;2023-03-20T15:15:36;11.88;;;3.58;;
38683;SDS011;24910;53.248;-6.134;2023-03-20T15:18:06;12.52;;;3.50;;
38683;SDS011;24910;53.248;-6.134;2023-03-20T15:20:42;17.10;;;3.90;;
38683;SDS011;24910;53.248;-6.134;2023-03-20T15:23:12;11.98;;;3.53;;
38683;SDS011;24910;53.248;-6.134;2023-03-20T15:25:42;15.00;;;3.03;;
38683;SDS011;24910;53.248;-6.134;2023-03-20T15:28:13;10.57;;;3.15;;
38683;SDS011;24910;53.248;-6.134;2023-03-20T15:30:49;9.90;;;3.30;;
38683;SDS011;24910;53.248;-6.134;2023-03-20T15:33:22;7.95;;;2.70;;
38683;SDS011;24910;53.248;-6.134;2023-03-20T15:35:54;12.13;;;3.63;;
38683;SDS011;24910;53.248;-6.134;2023-03-20T15:38:25;10.88;;;4.22;;
38683;SDS011;24910;53.248;-6.134;2023-03-20T15:41:02;11.88;;;4.18;;
38683;SDS011;24910;53.248;-6.134;2023-03-20T15:43:34;12.30;;;4.32;;
38683;SDS011;24910;53.248;-6.134;2023-03-20T15:46:05;13.30;;;3.83;;